createdAt,value
2019-01-08T00:00:22.405Z,59.07
2019-01-08T00:02:58.614Z,28.90
2019-01-08T00:05:29.070Z,35.52
2019-01-08T00:08:00.501Z,33.85
2019-01-08T00:10:31.180Z,45.33
2019-01-08T00:13:02.330Z,36.73
2019-01-08T00:15:32.855Z,50.95
2019-01-08T00:18:06.427Z,23.22
2019-01-08T00:20:36.748Z,34.25
2019-01-08T00:23:12.933Z,35.70
2019-01-08T00:25:43.462Z,31.52
2019-01-08T00:28:13.844Z,33.42
2019-01-08T00:30:45.214Z,51.95
2019-01-08T00:33:15.573Z,51.02
2019-01-08T00:35:51.210Z,39.95
2019-01-08T00:38:21.763Z,50.50
2019-01-08T00:40:52.366Z,40.70
2019-01-08T00:43:23.874Z,33.45
2019-01-08T00:45:55.040Z,27.37
2019-01-08T00:48:26.475Z,37.63
2019-01-08T00:50:57.042Z,32.98
2019-01-08T00:53:27.729Z,33.80
2019-01-08T00:55:57.990Z,40.35
2019-01-08T00:58:28.675Z,26.02
2019-01-08T01:00:59.347Z,25.45
2019-01-08T01:03:29.801Z,38.02
2019-01-08T01:06:00.200Z,43.83
2019-01-08T01:08:31.137Z,22.52
2019-01-08T01:11:02.079Z,33.90
2019-01-08T01:13:32.380Z,26.65
2019-01-08T01:16:04.009Z,32.05
2019-01-08T01:18:34.666Z,16.00
2019-01-08T01:21:05.484Z,27.90
2019-01-08T01:23:38.205Z,30.92
2019-01-08T01:26:08.760Z,49.58
2019-01-08T01:28:39.571Z,28.77
2019-01-08T01:31:10.590Z,38.45
2019-01-08T01:33:41.624Z,28.87
2019-01-08T01:36:12.598Z,34.80
2019-01-08T01:38:43.073Z,29.82
2019-01-08T01:41:14.581Z,24.23
2019-01-08T01:43:45.208Z,39.78
2019-01-08T01:46:15.792Z,42.27
2019-01-08T01:48:47.549Z,30.65
2019-01-08T01:51:19.125Z,24.80
2019-01-08T01:53:49.633Z,31.62
2019-01-08T01:56:20.208Z,18.42
2019-01-08T01:58:50.861Z,23.42
2019-01-08T02:01:21.244Z,25.37
2019-01-08T02:03:51.533Z,27.32
2019-01-08T02:06:23.169Z,27.35
2019-01-08T02:08:53.447Z,21.73
2019-01-08T02:11:24.059Z,25.92
2019-01-08T02:13:54.401Z,17.95
2019-01-08T02:16:27.374Z,17.95
2019-01-08T02:18:57.690Z,21.70
2019-01-08T02:21:28.017Z,26.82
2019-01-08T02:24:00.333Z,19.32
2019-01-08T02:26:30.692Z,30.70
2019-01-08T02:29:01.044Z,31.52
2019-01-08T02:31:31.292Z,19.65
2019-01-08T02:34:01.818Z,38.42
2019-01-08T02:36:32.149Z,22.55
2019-01-08T02:39:02.494Z,46.90
2019-01-08T02:41:32.866Z,38.53
2019-01-08T02:44:03.402Z,34.15
2019-01-08T02:46:33.832Z,42.75
2019-01-08T02:49:04.792Z,33.35
2019-01-08T02:51:35.180Z,25.17
2019-01-08T02:54:05.527Z,34.00
2019-01-08T02:56:35.784Z,36.03
2019-01-08T02:59:06.063Z,27.55
2019-01-08T03:01:36.312Z,35.00
2019-01-08T03:04:06.615Z,41.65
2019-01-08T03:06:37.390Z,36.80
2019-01-08T03:09:08.703Z,32.75
2019-01-08T03:11:41.012Z,40.35
2019-01-08T03:14:11.505Z,36.23
2019-01-08T03:16:41.903Z,42.58
2019-01-08T03:19:13.486Z,30.23
2019-01-08T03:21:44.216Z,48.92
2019-01-08T03:24:14.626Z,45.70
2019-01-08T03:26:45.225Z,45.85
2019-01-08T03:29:15.815Z,53.87
2019-01-08T03:31:46.171Z,43.20
2019-01-08T03:34:16.512Z,45.45
2019-01-08T03:36:47.126Z,49.65
2019-01-08T03:39:19.629Z,45.17
2019-01-08T03:41:50.070Z,40.33
2019-01-08T03:44:20.589Z,32.05
2019-01-08T03:46:51.162Z,44.58
2019-01-08T03:49:21.480Z,31.85
2019-01-08T03:51:51.843Z,45.25
2019-01-08T03:54:22.122Z,35.50
2019-01-08T03:56:52.422Z,56.92
2019-01-08T03:59:22.758Z,39.00
2019-01-08T04:01:53.105Z,48.40
2019-01-08T04:04:23.570Z,51.48
2019-01-08T04:06:54.070Z,50.17
2019-01-08T04:09:24.365Z,20.50
2019-01-08T04:11:54.655Z,26.23
2019-01-08T04:14:24.967Z,32.50
2019-01-08T04:16:55.133Z,42.38
2019-01-08T04:19:25.559Z,40.48
2019-01-08T04:21:55.931Z,41.23
2019-01-08T04:24:26.211Z,40.83
2019-01-08T04:26:56.743Z,30.52
2019-01-08T04:29:27.020Z,32.28
2019-01-08T04:31:57.344Z,42.40
2019-01-08T04:34:27.672Z,36.95
2019-01-08T04:36:58.495Z,25.52
2019-01-08T04:39:29.772Z,37.28
2019-01-08T04:42:00.008Z,40.23
2019-01-08T04:44:30.573Z,44.10
2019-01-08T04:47:00.956Z,50.85
2019-01-08T04:49:31.162Z,30.97
2019-01-08T04:52:01.507Z,42.75
2019-01-08T04:54:32.848Z,32.93
2019-01-08T04:57:03.261Z,42.83
2019-01-08T04:59:33.644Z,54.48
2019-01-08T05:02:04.235Z,23.50
2019-01-08T05:04:36.494Z,30.57
2019-01-08T05:07:06.828Z,35.83
2019-01-08T05:09:37.195Z,35.88
2019-01-08T05:12:07.664Z,33.85
2019-01-08T05:14:38.386Z,42.15
2019-01-08T05:17:08.735Z,36.53
2019-01-08T05:19:39.009Z,19.00
2019-01-08T05:22:09.382Z,32.67
2019-01-08T05:24:40.015Z,29.18
2019-01-08T05:27:10.352Z,37.08
2019-01-08T05:29:40.729Z,18.45
2019-01-08T05:32:11.753Z,22.13
2019-01-08T05:34:42.154Z,23.62
2019-01-08T05:37:12.839Z,19.82
2019-01-08T05:39:43.290Z,23.87
2019-01-08T05:42:13.903Z,22.62
2019-01-08T05:44:44.370Z,37.98
2019-01-08T05:47:16.449Z,36.33
2019-01-08T05:49:47.447Z,28.00
2019-01-08T05:52:18.623Z,36.75
2019-01-08T05:54:49.243Z,25.08
2019-01-08T05:57:19.874Z,52.33
2019-01-08T05:59:50.376Z,43.75
2019-01-08T06:02:21.087Z,38.67
2019-01-08T06:04:51.768Z,58.87
2019-01-08T06:07:22.181Z,51.58
2019-01-08T06:09:52.715Z,51.98
2019-01-08T06:12:23.033Z,62.37
2019-01-08T06:14:53.618Z,55.08
2019-01-08T06:17:23.888Z,42.25
2019-01-08T06:19:55.211Z,48.42
2019-01-08T06:22:25.506Z,25.48
2019-01-08T06:24:56.069Z,36.42
2019-01-08T06:27:26.309Z,40.52
2019-01-08T06:29:56.842Z,46.23
2019-01-08T06:32:27.105Z,54.93
2019-01-08T06:34:57.434Z,37.05
2019-01-08T06:37:27.763Z,31.70
2019-01-08T06:39:57.976Z,28.85
2019-01-08T06:42:28.494Z,38.92
2019-01-08T06:44:58.940Z,27.23
2019-01-08T06:47:30.278Z,24.02
2019-01-08T06:50:02.968Z,48.55
2019-01-08T06:52:33.954Z,29.18
2019-01-08T06:55:04.376Z,37.85
2019-01-08T06:57:37.046Z,30.25
2019-01-08T07:00:08.854Z,33.80
2019-01-08T07:02:40.329Z,39.40
2019-01-08T07:05:10.647Z,27.67
2019-01-08T07:07:41.031Z,24.27
2019-01-08T07:10:11.335Z,28.80
2019-01-08T07:12:43.096Z,21.82
2019-01-08T07:15:14.507Z,26.05
2019-01-08T07:17:44.727Z,31.52
2019-01-08T07:20:15.045Z,20.48
2019-01-08T07:22:45.307Z,11.12
2019-01-08T07:25:15.902Z,32.83
2019-01-08T07:27:46.090Z,17.25
2019-01-08T07:30:16.323Z,20.37
2019-01-08T07:32:47.197Z,33.00
2019-01-08T07:35:17.520Z,24.15
2019-01-08T07:37:47.850Z,20.20
2019-01-08T07:40:18.124Z,18.55
2019-01-08T07:42:48.369Z,10.95
2019-01-08T07:45:18.647Z,22.73
2019-01-08T07:47:48.852Z,22.80
2019-01-08T07:50:19.578Z,17.03
2019-01-08T07:52:49.839Z,16.05
2019-01-08T07:55:20.073Z,21.07
2019-01-08T07:57:50.325Z,19.50
2019-01-08T08:00:20.915Z,12.85
2019-01-08T08:02:51.442Z,13.58
2019-01-08T08:05:22.194Z,18.60
2019-01-08T08:07:54.445Z,13.25
2019-01-08T08:10:24.614Z,6.10
2019-01-08T08:12:54.990Z,8.38
2019-01-08T08:15:25.371Z,7.62
2019-01-08T08:17:55.741Z,14.35
2019-01-08T08:20:26.560Z,10.30
2019-01-08T08:22:56.947Z,15.90
2019-01-08T08:25:27.534Z,16.75
2019-01-08T08:27:57.829Z,9.13
2019-01-08T08:30:28.227Z,12.93
2019-01-08T08:32:58.503Z,9.00
2019-01-08T08:35:28.897Z,13.40
2019-01-08T08:37:59.258Z,4.33
2019-01-08T08:40:29.417Z,21.00
2019-01-08T08:42:59.973Z,16.90
2019-01-08T08:45:30.345Z,10.70
2019-01-08T08:48:00.669Z,15.08
2019-01-08T08:50:32.989Z,12.90
2019-01-08T08:53:03.537Z,10.33
2019-01-08T08:55:34.576Z,10.18
2019-01-08T08:58:05.932Z,6.70
2019-01-08T09:00:36.308Z,10.55
2019-01-08T09:03:06.555Z,6.60
2019-01-08T09:05:36.937Z,6.80
2019-01-08T09:08:07.228Z,3.55
2019-01-08T09:10:37.732Z,1.95
2019-01-08T09:13:08.009Z,9.63
2019-01-08T09:15:38.486Z,12.88
2019-01-08T09:18:08.803Z,3.50
2019-01-08T09:20:39.153Z,3.50
2019-01-08T09:23:09.568Z,10.08
2019-01-08T09:25:39.792Z,5.37
2019-01-08T09:28:10.543Z,4.15
2019-01-08T09:30:40.970Z,8.98
2019-01-08T09:33:11.494Z,1.67
2019-01-08T09:35:45.194Z,5.37
2019-01-08T09:38:15.459Z,9.00
2019-01-08T09:40:45.720Z,4.67
2019-01-08T09:43:15.883Z,6.60
2019-01-08T09:45:46.605Z,1.85
2019-01-08T09:48:16.813Z,5.42
2019-01-08T09:50:47.198Z,1.37
2019-01-08T09:53:17.751Z,4.05
2019-01-08T09:55:48.032Z,4.28
2019-01-08T09:58:18.347Z,1.60
2019-01-08T10:00:48.653Z,2.05
2019-01-08T10:03:18.970Z,1.77
2019-01-08T10:05:49.318Z,5.08
2019-01-08T10:08:19.720Z,4.62
2019-01-08T10:10:49.982Z,9.10
2019-01-08T10:13:20.206Z,5.80
2019-01-08T10:15:50.634Z,4.05
2019-01-08T10:18:20.854Z,4.80
2019-01-08T10:20:51.299Z,2.27
2019-01-08T10:23:21.792Z,3.90
2019-01-08T10:25:52.399Z,3.22
2019-01-08T10:28:23.199Z,3.02
2019-01-08T10:30:53.837Z,4.28
2019-01-08T10:33:24.119Z,8.48
2019-01-08T10:35:54.445Z,3.55
2019-01-08T10:38:25.145Z,6.62
2019-01-08T10:40:55.591Z,9.78
2019-01-08T10:43:25.891Z,5.33
2019-01-08T10:45:56.450Z,5.17
2019-01-08T10:48:26.676Z,1.85
2019-01-08T10:50:57.497Z,4.75
2019-01-08T10:53:27.972Z,8.38
2019-01-08T10:55:58.241Z,5.10
2019-01-08T10:58:28.595Z,4.67
2019-01-08T11:00:58.959Z,4.67
2019-01-08T11:03:29.196Z,10.08
2019-01-08T11:05:59.821Z,1.57
2019-01-08T11:08:30.369Z,5.85
2019-01-08T11:11:01.940Z,6.28
2019-01-08T11:13:32.196Z,4.15
2019-01-08T11:16:02.544Z,3.37
2019-01-08T11:18:36.545Z,8.88
2019-01-08T11:21:06.833Z,14.70
2019-01-08T11:23:37.631Z,6.10
2019-01-08T11:26:07.962Z,7.80
2019-01-08T11:28:38.473Z,5.62
2019-01-08T11:31:09.155Z,4.17
2019-01-08T11:33:39.884Z,4.65
2019-01-08T11:36:10.104Z,6.22
2019-01-08T11:38:41.664Z,15.48
2019-01-08T11:41:12.024Z,4.45
2019-01-08T11:43:42.370Z,7.42
2019-01-08T11:46:17.130Z,9.73
2019-01-08T11:48:48.400Z,3.87
2019-01-08T11:51:19.923Z,5.75
2019-01-08T11:53:50.237Z,4.05
2019-01-08T11:56:24.887Z,7.75
2019-01-08T11:58:55.216Z,5.00
2019-01-08T12:01:25.524Z,5.15
2019-01-08T12:03:56.061Z,7.10
2019-01-08T12:06:28.535Z,4.12
2019-01-08T12:08:58.833Z,8.48
2019-01-08T12:11:29.371Z,13.95
2019-01-08T12:13:59.926Z,2.80
2019-01-08T12:16:31.245Z,6.63
2019-01-08T12:19:01.504Z,2.20
2019-01-08T12:21:31.899Z,4.72
2019-01-08T12:24:02.324Z,7.05
2019-01-08T12:26:32.718Z,2.10
2019-01-08T12:29:02.992Z,5.40
2019-01-08T12:31:33.234Z,0.57
2019-01-08T12:34:03.864Z,5.15
2019-01-08T12:36:34.223Z,1.77
2019-01-08T12:39:06.901Z,3.60
2019-01-08T12:41:37.206Z,2.37
2019-01-08T12:44:07.441Z,3.35
2019-01-08T12:46:37.838Z,2.02
2019-01-08T12:49:08.258Z,3.00
2019-01-08T12:51:38.856Z,1.35
2019-01-08T12:54:10.148Z,1.15
2019-01-08T12:56:40.545Z,1.07
2019-01-08T12:59:10.859Z,3.30
2019-01-08T13:01:41.218Z,0.78
2019-01-08T13:04:11.916Z,0.93
2019-01-08T13:06:44.507Z,1.92
2019-01-08T13:09:14.705Z,5.53
2019-01-08T13:11:44.889Z,4.10
2019-01-08T13:14:15.497Z,0.50
2019-01-08T13:16:45.746Z,1.40
2019-01-08T13:19:15.980Z,1.30
2019-01-08T13:21:46.244Z,3.47
2019-01-08T13:24:16.466Z,1.82
2019-01-08T13:26:46.817Z,7.17
2019-01-08T13:29:17.058Z,9.50
2019-01-08T13:31:47.465Z,3.27
2019-01-08T13:34:18.095Z,2.72
2019-01-08T13:36:48.643Z,5.37
2019-01-08T13:39:18.911Z,4.22
2019-01-08T13:41:49.579Z,2.45
2019-01-08T13:44:19.969Z,3.12
2019-01-08T13:46:50.232Z,7.15
2019-01-08T13:49:20.957Z,0.60
2019-01-08T13:51:51.610Z,3.00
2019-01-08T13:54:22.306Z,1.60
2019-01-08T13:56:53.829Z,4.87
2019-01-08T13:59:24.078Z,3.80
2019-01-08T14:01:54.364Z,1.87
2019-01-08T14:04:24.766Z,1.47
2019-01-08T14:06:55.078Z,1.65
2019-01-08T14:09:25.446Z,9.98
2019-01-08T14:11:57.974Z,1.52
2019-01-08T14:14:28.277Z,1.85
2019-01-08T14:16:58.539Z,1.25
2019-01-08T14:19:29.135Z,3.40
2019-01-08T14:21:59.301Z,1.40
2019-01-08T14:24:29.543Z,2.10
2019-01-08T14:27:00.380Z,1.65
2019-01-08T14:29:30.877Z,6.33
2019-01-08T14:32:01.315Z,1.30
2019-01-08T14:34:31.697Z,1.95
2019-01-08T14:37:02.014Z,3.67
2019-01-08T14:39:32.496Z,3.50
2019-01-08T14:42:03.003Z,4.30
2019-01-08T14:44:33.351Z,1.60
2019-01-08T14:47:03.966Z,0.98
2019-01-08T14:49:34.409Z,4.17
2019-01-08T14:52:04.634Z,1.30
2019-01-08T14:54:34.978Z,3.55
2019-01-08T14:57:05.252Z,3.65
2019-01-08T14:59:35.502Z,0.80
2019-01-08T15:02:06.363Z,1.50
2019-01-08T15:04:36.720Z,1.52
2019-01-08T15:07:07.015Z,3.77
2019-01-08T15:09:37.336Z,1.67
2019-01-08T15:12:08.076Z,1.50
2019-01-08T15:14:38.715Z,3.17
2019-01-08T15:17:09.313Z,4.42
2019-01-08T15:19:39.690Z,1.05
2019-01-08T15:22:10.270Z,1.15
2019-01-08T15:24:40.591Z,3.05
2019-01-08T15:27:11.643Z,3.90
2019-01-08T15:29:41.923Z,2.08
2019-01-08T15:32:12.282Z,3.02
2019-01-08T15:34:43.733Z,1.40
2019-01-08T15:37:14.230Z,1.95
2019-01-08T15:39:44.489Z,2.70
2019-01-08T15:42:15.146Z,6.08
2019-01-08T15:44:45.400Z,0.50
2019-01-08T15:47:15.922Z,2.60
2019-01-08T15:49:46.896Z,5.40
2019-01-08T15:52:17.144Z,2.90
2019-01-08T15:54:47.391Z,1.17
2019-01-08T15:57:17.785Z,2.52
2019-01-08T15:59:48.239Z,1.45
2019-01-08T16:02:18.523Z,0.68
2019-01-08T16:04:50.000Z,3.40
2019-01-08T16:07:20.304Z,4.35
2019-01-08T16:09:50.594Z,5.25
2019-01-08T16:12:20.813Z,2.35
2019-01-08T16:14:51.198Z,11.08
2019-01-08T16:17:21.625Z,6.95
2019-01-08T16:19:51.996Z,2.30
2019-01-08T16:22:22.522Z,3.15
2019-01-08T16:24:52.747Z,4.40
2019-01-08T16:27:23.189Z,10.53
2019-01-08T16:29:53.557Z,4.63
2019-01-08T16:32:24.240Z,5.47
2019-01-08T16:34:55.694Z,9.30
2019-01-08T16:37:27.071Z,3.37
2019-01-08T16:39:57.434Z,9.78
2019-01-08T16:42:27.745Z,8.05
2019-01-08T16:44:58.371Z,4.42
2019-01-08T16:47:28.649Z,4.12
2019-01-08T16:49:59.022Z,3.05
2019-01-08T16:52:29.369Z,1.42
2019-01-08T16:55:00.136Z,7.50
2019-01-08T16:57:31.451Z,3.85
2019-01-08T17:00:01.764Z,1.50
2019-01-08T17:02:33.006Z,1.98
2019-01-08T17:05:03.444Z,2.85
2019-01-08T17:07:33.817Z,1.82
2019-01-08T17:10:04.131Z,2.35
2019-01-08T17:12:34.376Z,10.65
2019-01-08T17:15:05.753Z,3.45
2019-01-08T17:17:35.981Z,5.92
2019-01-08T17:20:07.625Z,5.83
2019-01-08T17:22:38.006Z,4.55
2019-01-08T17:25:08.438Z,8.15
2019-01-08T17:27:38.698Z,3.52
2019-01-08T17:30:10.841Z,1.75
2019-01-08T17:32:41.234Z,8.48
2019-01-08T17:35:11.682Z,2.08
2019-01-08T17:37:41.968Z,3.83
2019-01-08T17:40:18.016Z,1.72
2019-01-08T17:42:48.728Z,1.70
2019-01-08T17:45:19.300Z,1.50
2019-01-08T17:47:49.593Z,2.52
2019-01-08T17:50:20.018Z,4.08
2019-01-08T17:52:52.426Z,1.60
2019-01-08T17:55:26.842Z,2.85
2019-01-08T17:58:30.865Z,0.88
2019-01-08T18:01:03.602Z,7.67
2019-01-08T18:03:42.348Z,5.20
2019-01-08T18:06:08.076Z,11.93
2019-01-08T18:08:38.432Z,1.35
2019-01-08T18:11:09.016Z,1.65
2019-01-08T18:13:40.563Z,1.57
2019-01-08T18:16:11.286Z,2.92
2019-01-08T18:18:41.491Z,0.80
2019-01-08T18:21:12.757Z,2.80
2019-01-08T18:23:43.213Z,1.12
2019-01-08T18:26:13.583Z,8.13
2019-01-08T18:28:44.071Z,4.45
2019-01-08T18:31:14.271Z,6.85
2019-01-08T18:33:51.488Z,2.25
2019-01-08T18:36:17.824Z,2.08
2019-01-08T18:38:48.072Z,1.30
2019-01-08T18:41:18.645Z,3.40
2019-01-08T18:43:49.060Z,0.88
2019-01-08T18:46:19.761Z,2.77
2019-01-08T18:48:51.788Z,1.02
2019-01-08T18:51:22.079Z,2.15
2019-01-08T18:53:54.068Z,7.95
2019-01-08T18:56:24.338Z,1.50
2019-01-08T18:58:58.172Z,0.82
2019-01-08T19:01:35.669Z,1.80
2019-01-08T19:04:15.238Z,7.47
2019-01-08T19:06:45.544Z,1.47
2019-01-08T19:09:27.753Z,1.15
2019-01-08T19:11:58.210Z,8.28
2019-01-08T19:14:37.109Z,3.58
2019-01-08T19:17:10.222Z,2.83
2019-01-08T19:19:43.951Z,4.72
2019-01-08T19:22:16.039Z,1.30
2019-01-08T19:24:46.463Z,5.47
2019-01-08T19:27:17.078Z,1.12
2019-01-08T19:29:48.106Z,1.05
2019-01-08T19:32:18.491Z,3.42
2019-01-08T19:34:48.778Z,1.77
2019-01-08T19:37:19.792Z,1.07
2019-01-08T19:39:50.177Z,3.12
2019-01-08T19:42:20.506Z,1.85
2019-01-08T19:44:50.789Z,10.45
2019-01-08T19:47:21.802Z,6.45
2019-01-08T19:49:52.597Z,7.42
2019-01-08T19:52:22.927Z,4.33
2019-01-08T19:54:53.399Z,2.87
2019-01-08T19:57:23.747Z,2.20
2019-01-08T19:59:54.335Z,5.53
2019-01-08T20:02:26.483Z,0.93
2019-01-08T20:04:57.137Z,4.30
2019-01-08T20:07:28.059Z,11.73
2019-01-08T20:09:58.339Z,7.70
2019-01-08T20:12:28.730Z,3.77
2019-01-08T20:14:58.987Z,9.83
2019-01-08T20:17:30.986Z,5.62
2019-01-08T20:20:01.485Z,5.40
2019-01-08T20:22:31.806Z,9.45
2019-01-08T20:25:02.261Z,7.87
2019-01-08T20:27:32.741Z,5.83
2019-01-08T20:30:03.455Z,3.47
2019-01-08T20:32:34.872Z,6.70
2019-01-08T20:35:05.981Z,2.75
2019-01-08T20:37:37.397Z,17.02
2019-01-08T20:40:10.049Z,2.25
2019-01-08T20:42:41.533Z,2.40
2019-01-08T20:45:14.155Z,4.87
2019-01-08T20:47:44.395Z,3.95
2019-01-08T20:50:16.680Z,3.92
2019-01-08T20:52:55.583Z,4.90
2019-01-08T20:55:26.205Z,2.20
2019-01-08T20:57:58.376Z,9.93
2019-01-08T21:00:28.910Z,11.50
2019-01-08T21:02:59.454Z,3.20
2019-01-08T21:05:30.293Z,21.93
2019-01-08T21:08:02.708Z,5.05
2019-01-08T21:10:35.251Z,6.92
2019-01-08T21:13:06.203Z,13.88
2019-01-08T21:15:36.606Z,10.93
2019-01-08T21:18:07.316Z,5.97
2019-01-08T21:20:37.817Z,4.92
2019-01-08T21:23:09.845Z,11.97
2019-01-08T21:25:42.234Z,3.08
2019-01-08T21:28:13.806Z,5.75
2019-01-08T21:30:44.543Z,6.78
2019-01-08T21:33:14.795Z,7.20
2019-01-08T21:35:48.273Z,3.05
2019-01-08T21:38:18.997Z,4.30
2019-01-08T21:40:51.509Z,8.40
2019-01-08T21:43:22.779Z,8.70
2019-01-08T21:45:52.997Z,7.92
2019-01-08T21:48:23.486Z,7.55
2019-01-08T21:50:53.805Z,6.47
2019-01-08T21:53:24.142Z,12.98
2019-01-08T21:55:54.524Z,2.37
2019-01-08T21:58:24.783Z,11.35
2019-01-08T22:00:55.131Z,11.03
2019-01-08T22:03:26.486Z,4.55
2019-01-08T22:05:56.905Z,1.45
2019-01-08T22:08:27.472Z,8.40
2019-01-08T22:10:57.772Z,6.22
2019-01-08T22:13:29.577Z,17.90
2019-01-08T22:16:01.296Z,13.72
2019-01-08T22:18:31.692Z,9.03
2019-01-08T22:21:02.195Z,11.53
2019-01-08T22:23:33.397Z,4.75
2019-01-08T22:26:03.808Z,6.03
2019-01-08T22:28:34.119Z,6.90
2019-01-08T22:31:04.398Z,6.65
2019-01-08T22:33:35.833Z,9.55
2019-01-08T22:36:06.028Z,9.75
2019-01-08T22:38:36.334Z,6.37
2019-01-08T22:41:07.537Z,7.20
2019-01-08T22:43:37.788Z,8.83
2019-01-08T22:46:08.155Z,15.18
2019-01-08T22:48:38.496Z,9.73
2019-01-08T22:51:08.968Z,12.87
2019-01-08T22:53:39.469Z,13.00
2019-01-08T22:56:10.159Z,7.33
2019-01-08T22:58:40.393Z,8.50
2019-01-08T23:01:17.222Z,5.58
2019-01-08T23:03:47.844Z,3.62
2019-01-08T23:06:18.397Z,7.65
2019-01-08T23:08:49.023Z,7.42
2019-01-08T23:11:19.762Z,8.83
2019-01-08T23:13:50.137Z,3.12
2019-01-08T23:16:20.515Z,3.42
2019-01-08T23:18:50.835Z,6.53
2019-01-08T23:21:21.045Z,2.27
2019-01-08T23:23:51.254Z,8.58
2019-01-08T23:26:21.809Z,6.95
2019-01-08T23:28:52.164Z,2.45
2019-01-08T23:31:22.565Z,5.72
2019-01-08T23:33:54.138Z,5.33
2019-01-08T23:36:24.515Z,4.97
2019-01-08T23:38:55.084Z,6.37
2019-01-08T23:41:25.797Z,4.28
2019-01-08T23:43:56.075Z,2.47
2019-01-08T23:46:26.327Z,4.20
2019-01-08T23:48:56.790Z,4.05
2019-01-08T23:51:27.075Z,4.53
2019-01-08T23:53:57.911Z,5.78
2019-01-08T23:56:29.053Z,1.25
2019-01-08T23:58:59.446Z,1.87
